Terminal Aerodrome Forecast
Issued by NWS Twin Cities, MN

Home | Current Version | Previous Version | Text Only | Print | Product List | Glossary On
Versions: 1 2 3 4 5 6 7 8 9 10 11 12 13 14 15 16 17 18
000
FTUS43 KMPX 182300 RRA
TAFEAU
TAF
KEAU 182345Z 1900/1924 11008KT P6SM BKN100
     FM191100 15013G21KT P6SM SCT050 BKN100
     FM191800 17016G25KT P6SM BKN070
     FM192100 18015G23KT P6SM VCSH SCT035 OVC060
      TEMPO 1922/1923 5SM -SHRA OVC040
     FM192300 23007KT P6SM SCT060 BKN100=

USA.gov is the U.S. government's official web portal to all federal, state and local government web resources and services.